sensor_id;sensor_type;location;lat;lon;timestamp;P1;durP1;ratioP1;P2;durP2;ratioP2
27187;SDS011;14708;50.872;5.306;2024-03-08T00:00:14;2.85;;;2.22;;
27187;SDS011;14708;50.872;5.306;2024-03-08T00:02:43;3.22;;;2.67;;
27187;SDS011;14708;50.872;5.306;2024-03-08T00:05:10;3.88;;;2.90;;
27187;SDS011;14708;50.872;5.306;2024-03-08T00:07:36;3.33;;;2.40;;
27187;SDS011;14708;50.872;5.306;2024-03-08T00:10:03;3.70;;;2.72;;
27187;SDS011;14708;50.872;5.306;2024-03-08T00:12:30;4.45;;;3.00;;
27187;SDS011;14708;50.872;5.306;2024-03-08T00:14:56;3.10;;;2.33;;
27187;SDS011;14708;50.872;5.306;2024-03-08T00:17:22;4.68;;;3.40;;
27187;SDS011;14708;50.872;5.306;2024-03-08T00:19:48;4.20;;;3.00;;
27187;SDS011;14708;50.872;5.306;2024-03-08T00:22:17;3.67;;;2.30;;
27187;SDS011;14708;50.872;5.306;2024-03-08T00:24:43;4.53;;;3.20;;
27187;SDS011;14708;50.872;5.306;2024-03-08T00:27:09;3.33;;;2.42;;
27187;SDS011;14708;50.872;5.306;2024-03-08T00:32:14;3.38;;;2.13;;
27187;SDS011;14708;50.872;5.306;2024-03-08T00:34:39;3.10;;;2.30;;
27187;SDS011;14708;50.872;5.306;2024-03-08T00:37:05;3.53;;;2.45;;
27187;SDS011;14708;50.872;5.306;2024-03-08T00:39:31;3.25;;;2.60;;
27187;SDS011;14708;50.872;5.306;2024-03-08T00:41:57;4.60;;;2.95;;
27187;SDS011;14708;50.872;5.306;2024-03-08T00:44:23;3.78;;;2.88;;
27187;SDS011;14708;50.872;5.306;2024-03-08T00:46:50;3.17;;;2.50;;
27187;SDS011;14708;50.872;5.306;2024-03-08T00:49:16;4.40;;;2.65;;
27187;SDS011;14708;50.872;5.306;2024-03-08T00:51:43;3.67;;;2.60;;
27187;SDS011;14708;50.872;5.306;2024-03-08T00:54:08;3.60;;;2.53;;
27187;SDS011;14708;50.872;5.306;2024-03-08T00:56:36;3.80;;;2.72;;
27187;SDS011;14708;50.872;5.306;2024-03-08T00:59:04;4.18;;;2.95;;
27187;SDS011;14708;50.872;5.306;2024-03-08T01:01:31;3.20;;;2.60;;
27187;SDS011;14708;50.872;5.306;2024-03-08T01:03:57;4.78;;;3.25;;
27187;SDS011;14708;50.872;5.306;2024-03-08T01:06:23;4.47;;;3.17;;
27187;SDS011;14708;50.872;5.306;2024-03-08T01:08:49;5.43;;;3.28;;
27187;SDS011;14708;50.872;5.306;2024-03-08T01:11:17;3.78;;;2.58;;
27187;SDS011;14708;50.872;5.306;2024-03-08T01:13:43;3.78;;;2.90;;
27187;SDS011;14708;50.872;5.306;2024-03-08T01:16:09;3.38;;;2.72;;
27187;SDS011;14708;50.872;5.306;2024-03-08T01:18:35;3.63;;;2.40;;
27187;SDS011;14708;50.872;5.306;2024-03-08T01:21:01;3.60;;;2.88;;
27187;SDS011;14708;50.872;5.306;2024-03-08T01:23:27;3.20;;;2.88;;
27187;SDS011;14708;50.872;5.306;2024-03-08T01:25:54;3.45;;;2.55;;
27187;SDS011;14708;50.872;5.306;2024-03-08T01:28:25;3.50;;;2.65;;
27187;SDS011;14708;50.872;5.306;2024-03-08T01:30:52;3.72;;;2.70;;
27187;SDS011;14708;50.872;5.306;2024-03-08T01:33:24;3.53;;;2.43;;
27187;SDS011;14708;50.872;5.306;2024-03-08T01:35:51;3.83;;;2.72;;
27187;SDS011;14708;50.872;5.306;2024-03-08T01:38:18;3.38;;;2.50;;
27187;SDS011;14708;50.872;5.306;2024-03-08T01:40:46;3.75;;;2.90;;
27187;SDS011;14708;50.872;5.306;2024-03-08T01:43:19;4.00;;;3.03;;
27187;SDS011;14708;50.872;5.306;2024-03-08T01:45:54;3.10;;;2.75;;
27187;SDS011;14708;50.872;5.306;2024-03-08T01:48:21;3.08;;;2.40;;
27187;SDS011;14708;50.872;5.306;2024-03-08T01:50:49;3.65;;;2.60;;
27187;SDS011;14708;50.872;5.306;2024-03-08T01:53:17;3.50;;;2.83;;
27187;SDS011;14708;50.872;5.306;2024-03-08T01:55:47;4.10;;;2.75;;
27187;SDS011;14708;50.872;5.306;2024-03-08T01:58:14;4.43;;;3.15;;
27187;SDS011;14708;50.872;5.306;2024-03-08T02:00:44;4.68;;;3.25;;
27187;SDS011;14708;50.872;5.306;2024-03-08T02:03:11;3.75;;;2.92;;
27187;SDS011;14708;50.872;5.306;2024-03-08T02:05:38;3.92;;;2.67;;
27187;SDS011;14708;50.872;5.306;2024-03-08T02:08:06;4.05;;;2.85;;
27187;SDS011;14708;50.872;5.306;2024-03-08T02:10:33;3.67;;;3.05;;
27187;SDS011;14708;50.872;5.306;2024-03-08T02:13:01;3.72;;;2.92;;
27187;SDS011;14708;50.872;5.306;2024-03-08T02:15:49;4.78;;;3.20;;
27187;SDS011;14708;50.872;5.306;2024-03-08T02:18:19;3.13;;;2.33;;
27187;SDS011;14708;50.872;5.306;2024-03-08T02:20:51;3.83;;;2.70;;
27187;SDS011;14708;50.872;5.306;2024-03-08T02:23:20;5.78;;;2.95;;
27187;SDS011;14708;50.872;5.306;2024-03-08T02:25:47;3.85;;;3.08;;
27187;SDS011;14708;50.872;5.306;2024-03-08T02:28:14;3.83;;;2.90;;
27187;SDS011;14708;50.872;5.306;2024-03-08T02:30:40;4.57;;;2.75;;
27187;SDS011;14708;50.872;5.306;2024-03-08T02:33:06;4.45;;;2.75;;
27187;SDS011;14708;50.872;5.306;2024-03-08T02:35:34;4.20;;;2.65;;
27187;SDS011;14708;50.872;5.306;2024-03-08T02:38:00;3.97;;;2.85;;
27187;SDS011;14708;50.872;5.306;2024-03-08T02:40:28;3.40;;;2.92;;
27187;SDS011;14708;50.872;5.306;2024-03-08T02:42:54;4.28;;;3.38;;
27187;SDS011;14708;50.872;5.306;2024-03-08T02:45:20;3.15;;;2.75;;
27187;SDS011;14708;50.872;5.306;2024-03-08T02:47:46;3.17;;;2.70;;
27187;SDS011;14708;50.872;5.306;2024-03-08T02:50:14;3.25;;;2.50;;
27187;SDS011;14708;50.872;5.306;2024-03-08T02:52:41;4.05;;;2.67;;
27187;SDS011;14708;50.872;5.306;2024-03-08T02:55:13;3.65;;;2.70;;
27187;SDS011;14708;50.872;5.306;2024-03-08T02:57:42;4.40;;;3.22;;
27187;SDS011;14708;50.872;5.306;2024-03-08T03:00:12;3.00;;;2.53;;
27187;SDS011;14708;50.872;5.306;2024-03-08T03:02:38;3.63;;;2.80;;
27187;SDS011;14708;50.872;5.306;2024-03-08T03:05:05;3.55;;;2.70;;
27187;SDS011;14708;50.872;5.306;2024-03-08T03:07:34;4.78;;;3.33;;
27187;SDS011;14708;50.872;5.306;2024-03-08T03:10:00;3.45;;;2.55;;
27187;SDS011;14708;50.872;5.306;2024-03-08T03:12:27;4.35;;;3.40;;
27187;SDS011;14708;50.872;5.306;2024-03-08T03:14:55;5.47;;;2.72;;
27187;SDS011;14708;50.872;5.306;2024-03-08T03:17:24;4.55;;;3.40;;
27187;SDS011;14708;50.872;5.306;2024-03-08T03:19:50;4.45;;;3.42;;
27187;SDS011;14708;50.872;5.306;2024-03-08T03:22:20;4.15;;;2.83;;
27187;SDS011;14708;50.872;5.306;2024-03-08T03:24:46;4.15;;;2.70;;
27187;SDS011;14708;50.872;5.306;2024-03-08T03:27:12;4.75;;;3.20;;
27187;SDS011;14708;50.872;5.306;2024-03-08T03:29:40;5.45;;;2.88;;
27187;SDS011;14708;50.872;5.306;2024-03-08T03:32:14;4.05;;;3.00;;
27187;SDS011;14708;50.872;5.306;2024-03-08T03:34:40;3.40;;;2.70;;
27187;SDS011;14708;50.872;5.306;2024-03-08T03:37:08;4.93;;;2.97;;
27187;SDS011;14708;50.872;5.306;2024-03-08T03:39:37;3.23;;;2.87;;
27187;SDS011;14708;50.872;5.306;2024-03-08T03:42:18;3.70;;;2.70;;
27187;SDS011;14708;50.872;5.306;2024-03-08T03:44:47;3.75;;;3.00;;
27187;SDS011;14708;50.872;5.306;2024-03-08T03:47:14;4.18;;;3.08;;
27187;SDS011;14708;50.872;5.306;2024-03-08T03:49:41;4.28;;;2.78;;
27187;SDS011;14708;50.872;5.306;2024-03-08T03:52:07;3.25;;;2.70;;
27187;SDS011;14708;50.872;5.306;2024-03-08T03:54:34;4.38;;;2.58;;
27187;SDS011;14708;50.872;5.306;2024-03-08T03:56:59;4.28;;;3.10;;
27187;SDS011;14708;50.872;5.306;2024-03-08T03:59:27;4.28;;;3.03;;
27187;SDS011;14708;50.872;5.306;2024-03-08T04:01:54;3.58;;;2.75;;
27187;SDS011;14708;50.872;5.306;2024-03-08T04:04:21;3.85;;;2.97;;
27187;SDS011;14708;50.872;5.306;2024-03-08T04:06:49;5.13;;;3.60;;
27187;SDS011;14708;50.872;5.306;2024-03-08T04:09:16;4.32;;;3.25;;
27187;SDS011;14708;50.872;5.306;2024-03-08T04:11:44;6.40;;;3.25;;
27187;SDS011;14708;50.872;5.306;2024-03-08T04:14:10;3.55;;;2.85;;
27187;SDS011;14708;50.872;5.306;2024-03-08T04:16:37;4.35;;;3.75;;
27187;SDS011;14708;50.872;5.306;2024-03-08T04:19:02;4.60;;;3.33;;
27187;SDS011;14708;50.872;5.306;2024-03-08T04:21:32;3.95;;;3.20;;
27187;SDS011;14708;50.872;5.306;2024-03-08T04:23:58;3.75;;;3.03;;
27187;SDS011;14708;50.872;5.306;2024-03-08T04:26:23;4.63;;;3.08;;
27187;SDS011;14708;50.872;5.306;2024-03-08T04:28:51;4.40;;;2.75;;
27187;SDS011;14708;50.872;5.306;2024-03-08T04:31:16;3.83;;;3.13;;
27187;SDS011;14708;50.872;5.306;2024-03-08T04:33:42;4.25;;;3.20;;
27187;SDS011;14708;50.872;5.306;2024-03-08T04:36:09;4.15;;;3.25;;
27187;SDS011;14708;50.872;5.306;2024-03-08T04:38:38;4.88;;;3.53;;
27187;SDS011;14708;50.872;5.306;2024-03-08T04:41:06;5.15;;;3.25;;
27187;SDS011;14708;50.872;5.306;2024-03-08T04:43:32;3.55;;;2.80;;
27187;SDS011;14708;50.872;5.306;2024-03-08T04:45:58;3.58;;;2.88;;
27187;SDS011;14708;50.872;5.306;2024-03-08T04:48:24;4.03;;;3.22;;
27187;SDS011;14708;50.872;5.306;2024-03-08T04:50:53;4.22;;;2.90;;
27187;SDS011;14708;50.872;5.306;2024-03-08T04:53:22;3.85;;;3.08;;
27187;SDS011;14708;50.872;5.306;2024-03-08T04:55:48;3.55;;;2.72;;
27187;SDS011;14708;50.872;5.306;2024-03-08T04:58:14;4.43;;;3.45;;
27187;SDS011;14708;50.872;5.306;2024-03-08T05:00:40;3.95;;;3.15;;
27187;SDS011;14708;50.872;5.306;2024-03-08T05:03:06;5.03;;;3.15;;
27187;SDS011;14708;50.872;5.306;2024-03-08T05:05:34;3.45;;;2.67;;
27187;SDS011;14708;50.872;5.306;2024-03-08T05:08:03;4.32;;;2.75;;
27187;SDS011;14708;50.872;5.306;2024-03-08T05:10:30;4.10;;;3.00;;
27187;SDS011;14708;50.872;5.306;2024-03-08T05:12:57;3.90;;;3.15;;
27187;SDS011;14708;50.872;5.306;2024-03-08T05:15:23;5.05;;;3.35;;
27187;SDS011;14708;50.872;5.306;2024-03-08T05:17:51;3.08;;;2.78;;
27187;SDS011;14708;50.872;5.306;2024-03-08T05:20:17;4.25;;;3.05;;
27187;SDS011;14708;50.872;5.306;2024-03-08T05:22:45;3.90;;;2.88;;
27187;SDS011;14708;50.872;5.306;2024-03-08T05:25:12;4.18;;;3.17;;
27187;SDS011;14708;50.872;5.306;2024-03-08T05:27:39;3.72;;;3.03;;
27187;SDS011;14708;50.872;5.306;2024-03-08T05:30:05;3.95;;;3.55;;
27187;SDS011;14708;50.872;5.306;2024-03-08T05:32:31;4.30;;;3.25;;
27187;SDS011;14708;50.872;5.306;2024-03-08T05:35:02;3.75;;;2.65;;
27187;SDS011;14708;50.872;5.306;2024-03-08T05:37:32;3.70;;;3.20;;
27187;SDS011;14708;50.872;5.306;2024-03-08T05:39:58;4.50;;;3.08;;
27187;SDS011;14708;50.872;5.306;2024-03-08T05:42:26;2.88;;;2.55;;
27187;SDS011;14708;50.872;5.306;2024-03-08T05:44:53;3.75;;;2.75;;
27187;SDS011;14708;50.872;5.306;2024-03-08T05:47:22;4.55;;;3.17;;
27187;SDS011;14708;50.872;5.306;2024-03-08T05:49:51;4.40;;;2.92;;
27187;SDS011;14708;50.872;5.306;2024-03-08T05:52:20;3.53;;;2.83;;
27187;SDS011;14708;50.872;5.306;2024-03-08T05:54:46;3.75;;;3.38;;
27187;SDS011;14708;50.872;5.306;2024-03-08T05:57:12;4.38;;;3.33;;
27187;SDS011;14708;50.872;5.306;2024-03-08T05:59:39;4.93;;;3.15;;
27187;SDS011;14708;50.872;5.306;2024-03-08T06:02:05;3.72;;;3.10;;
27187;SDS011;14708;50.872;5.306;2024-03-08T06:04:30;4.53;;;2.95;;
27187;SDS011;14708;50.872;5.306;2024-03-08T06:06:57;4.47;;;3.08;;
27187;SDS011;14708;50.872;5.306;2024-03-08T06:09:24;4.40;;;3.42;;
27187;SDS011;14708;50.872;5.306;2024-03-08T06:11:50;4.80;;;3.17;;
27187;SDS011;14708;50.872;5.306;2024-03-08T06:14:19;5.88;;;3.25;;
27187;SDS011;14708;50.872;5.306;2024-03-08T06:16:51;4.47;;;3.70;;
27187;SDS011;14708;50.872;5.306;2024-03-08T06:19:19;4.03;;;2.90;;
27187;SDS011;14708;50.872;5.306;2024-03-08T06:21:45;4.95;;;2.90;;
27187;SDS011;14708;50.872;5.306;2024-03-08T06:24:11;4.32;;;2.85;;
27187;SDS011;14708;50.872;5.306;2024-03-08T06:26:40;4.18;;;3.00;;
27187;SDS011;14708;50.872;5.306;2024-03-08T06:29:08;5.35;;;3.03;;
27187;SDS011;14708;50.872;5.306;2024-03-08T06:31:35;5.32;;;3.53;;
27187;SDS011;14708;50.872;5.306;2024-03-08T06:34:04;4.13;;;3.05;;
27187;SDS011;14708;50.872;5.306;2024-03-08T06:36:32;3.45;;;2.70;;
27187;SDS011;14708;50.872;5.306;2024-03-08T06:39:02;4.35;;;3.30;;
27187;SDS011;14708;50.872;5.306;2024-03-08T06:41:34;6.28;;;3.63;;
27187;SDS011;14708;50.872;5.306;2024-03-08T06:44:01;4.32;;;3.45;;
27187;SDS011;14708;50.872;5.306;2024-03-08T06:46:27;4.35;;;2.58;;
27187;SDS011;14708;50.872;5.306;2024-03-08T06:48:53;4.60;;;2.95;;
27187;SDS011;14708;50.872;5.306;2024-03-08T06:51:18;4.63;;;3.30;;
27187;SDS011;14708;50.872;5.306;2024-03-08T06:53:47;4.82;;;3.30;;
27187;SDS011;14708;50.872;5.306;2024-03-08T06:56:18;4.40;;;3.17;;
27187;SDS011;14708;50.872;5.306;2024-03-08T06:58:47;5.15;;;3.35;;
27187;SDS011;14708;50.872;5.306;2024-03-08T07:01:14;5.78;;;3.35;;
27187;SDS011;14708;50.872;5.306;2024-03-08T07:03:44;5.13;;;3.10;;
27187;SDS011;14708;50.872;5.306;2024-03-08T07:06:11;4.45;;;3.08;;
27187;SDS011;14708;50.872;5.306;2024-03-08T07:08:36;5.65;;;3.65;;
27187;SDS011;14708;50.872;5.306;2024-03-08T07:11:02;6.15;;;3.10;;
27187;SDS011;14708;50.872;5.306;2024-03-08T07:13:28;5.63;;;3.50;;
27187;SDS011;14708;50.872;5.306;2024-03-08T07:15:55;4.15;;;3.08;;
27187;SDS011;14708;50.872;5.306;2024-03-08T07:18:21;4.32;;;3.40;;
27187;SDS011;14708;50.872;5.306;2024-03-08T07:20:48;5.28;;;2.92;;
27187;SDS011;14708;50.872;5.306;2024-03-08T07:23:14;13.73;;;5.05;;
27187;SDS011;14708;50.872;5.306;2024-03-08T07:26:03;9.00;;;4.93;;
27187;SDS011;14708;50.872;5.306;2024-03-08T07:28:31;5.70;;;3.83;;
27187;SDS011;14708;50.872;5.306;2024-03-08T07:30:58;9.50;;;4.07;;
27187;SDS011;14708;50.872;5.306;2024-03-08T07:33:42;7.55;;;3.47;;
27187;SDS011;14708;50.872;5.306;2024-03-08T07:36:08;6.38;;;3.90;;
27187;SDS011;14708;50.872;5.306;2024-03-08T07:38:35;9.50;;;4.13;;
27187;SDS011;14708;50.872;5.306;2024-03-08T07:41:04;8.77;;;4.35;;
27187;SDS011;14708;50.872;5.306;2024-03-08T07:43:29;8.70;;;3.97;;
27187;SDS011;14708;50.872;5.306;2024-03-08T07:45:58;13.95;;;4.32;;
27187;SDS011;14708;50.872;5.306;2024-03-08T07:48:24;13.68;;;4.40;;
27187;SDS011;14708;50.872;5.306;2024-03-08T07:50:50;11.80;;;4.45;;
27187;SDS011;14708;50.872;5.306;2024-03-08T07:53:17;13.30;;;4.43;;
27187;SDS011;14708;50.872;5.306;2024-03-08T07:55:42;13.85;;;4.75;;
27187;SDS011;14708;50.872;5.306;2024-03-08T07:58:09;9.05;;;3.78;;
27187;SDS011;14708;50.872;5.306;2024-03-08T08:03:04;8.27;;;4.35;;
27187;SDS011;14708;50.872;5.306;2024-03-08T08:05:30;10.70;;;4.65;;
27187;SDS011;14708;50.872;5.306;2024-03-08T08:08:01;39.50;;;7.15;;
27187;SDS011;14708;50.872;5.306;2024-03-08T08:10:34;7.55;;;3.65;;
27187;SDS011;14708;50.872;5.306;2024-03-08T08:13:02;11.68;;;4.95;;
27187;SDS011;14708;50.872;5.306;2024-03-08T08:15:31;6.80;;;3.90;;
27187;SDS011;14708;50.872;5.306;2024-03-08T08:17:59;8.07;;;4.07;;
27187;SDS011;14708;50.872;5.306;2024-03-08T08:20:27;7.17;;;3.83;;
27187;SDS011;14708;50.872;5.306;2024-03-08T08:22:54;8.82;;;4.00;;
27187;SDS011;14708;50.872;5.306;2024-03-08T08:25:20;13.15;;;4.63;;
27187;SDS011;14708;50.872;5.306;2024-03-08T08:27:49;7.68;;;3.70;;
27187;SDS011;14708;50.872;5.306;2024-03-08T08:30:15;6.70;;;3.92;;
27187;SDS011;14708;50.872;5.306;2024-03-08T08:32:42;8.00;;;4.03;;
27187;SDS011;14708;50.872;5.306;2024-03-08T08:35:08;8.73;;;3.28;;
27187;SDS011;14708;50.872;5.306;2024-03-08T08:37:34;11.13;;;3.83;;
27187;SDS011;14708;50.872;5.306;2024-03-08T08:40:03;7.23;;;4.13;;
27187;SDS011;14708;50.872;5.306;2024-03-08T08:42:35;7.95;;;4.30;;
27187;SDS011;14708;50.872;5.306;2024-03-08T08:45:03;6.68;;;3.70;;
27187;SDS011;14708;50.872;5.306;2024-03-08T08:47:33;6.47;;;3.60;;
27187;SDS011;14708;50.872;5.306;2024-03-08T08:49:59;13.98;;;4.53;;
27187;SDS011;14708;50.872;5.306;2024-03-08T08:52:26;11.98;;;4.18;;
27187;SDS011;14708;50.872;5.306;2024-03-08T08:54:54;9.18;;;3.65;;
27187;SDS011;14708;50.872;5.306;2024-03-08T08:57:20;14.38;;;3.55;;
27187;SDS011;14708;50.872;5.306;2024-03-08T08:59:45;7.90;;;3.53;;
27187;SDS011;14708;50.872;5.306;2024-03-08T09:02:11;6.10;;;3.17;;
27187;SDS011;14708;50.872;5.306;2024-03-08T09:04:42;10.15;;;4.15;;
27187;SDS011;14708;50.872;5.306;2024-03-08T09:07:12;7.15;;;3.90;;
27187;SDS011;14708;50.872;5.306;2024-03-08T09:09:39;8.98;;;3.80;;
27187;SDS011;14708;50.872;5.306;2024-03-08T09:12:06;10.85;;;4.78;;
27187;SDS011;14708;50.872;5.306;2024-03-08T09:14:36;8.02;;;3.95;;
27187;SDS011;14708;50.872;5.306;2024-03-08T09:17:05;6.90;;;3.67;;
27187;SDS011;14708;50.872;5.306;2024-03-08T09:19:33;7.17;;;3.50;;
27187;SDS011;14708;50.872;5.306;2024-03-08T09:21:59;6.88;;;3.53;;
27187;SDS011;14708;50.872;5.306;2024-03-08T09:24:25;5.43;;;3.50;;
27187;SDS011;14708;50.872;5.306;2024-03-08T09:26:51;9.15;;;4.05;;
27187;SDS011;14708;50.872;5.306;2024-03-08T09:29:18;8.73;;;3.92;;
27187;SDS011;14708;50.872;5.306;2024-03-08T09:31:45;9.13;;;4.18;;
27187;SDS011;14708;50.872;5.306;2024-03-08T09:34:12;7.93;;;4.55;;
27187;SDS011;14708;50.872;5.306;2024-03-08T09:36:38;7.72;;;4.55;;
27187;SDS011;14708;50.872;5.306;2024-03-08T09:39:06;14.50;;;5.10;;
27187;SDS011;14708;50.872;5.306;2024-03-08T09:41:33;13.65;;;5.43;;
27187;SDS011;14708;50.872;5.306;2024-03-08T09:43:59;8.75;;;4.28;;
27187;SDS011;14708;50.872;5.306;2024-03-08T09:46:25;9.85;;;4.28;;
27187;SDS011;14708;50.872;5.306;2024-03-08T09:48:54;6.60;;;3.27;;
27187;SDS011;14708;50.872;5.306;2024-03-08T09:51:26;9.23;;;4.60;;
27187;SDS011;14708;50.872;5.306;2024-03-08T09:53:53;9.95;;;4.88;;
27187;SDS011;14708;50.872;5.306;2024-03-08T09:56:19;9.63;;;6.03;;
27187;SDS011;14708;50.872;5.306;2024-03-08T09:58:46;11.80;;;5.95;;
27187;SDS011;14708;50.872;5.306;2024-03-08T10:01:30;8.80;;;4.55;;
27187;SDS011;14708;50.872;5.306;2024-03-08T10:03:57;10.43;;;4.78;;
27187;SDS011;14708;50.872;5.306;2024-03-08T10:06:24;8.15;;;4.63;;
27187;SDS011;14708;50.872;5.306;2024-03-08T10:08:50;10.15;;;4.88;;
27187;SDS011;14708;50.872;5.306;2024-03-08T10:11:17;10.93;;;5.05;;
27187;SDS011;14708;50.872;5.306;2024-03-08T10:13:44;8.13;;;4.72;;
27187;SDS011;14708;50.872;5.306;2024-03-08T10:16:11;9.18;;;4.93;;
27187;SDS011;14708;50.872;5.306;2024-03-08T10:18:37;9.38;;;5.97;;
27187;SDS011;14708;50.872;5.306;2024-03-08T10:21:07;8.10;;;5.50;;
27187;SDS011;14708;50.872;5.306;2024-03-08T10:23:35;8.90;;;5.13;;
27187;SDS011;14708;50.872;5.306;2024-03-08T10:28:45;11.35;;;5.25;;
27187;SDS011;14708;50.872;5.306;2024-03-08T10:31:15;8.35;;;5.75;;
27187;SDS011;14708;50.872;5.306;2024-03-08T10:33:42;8.98;;;5.95;;
27187;SDS011;14708;50.872;5.306;2024-03-08T10:36:09;6.55;;;4.68;;
27187;SDS011;14708;50.872;5.306;2024-03-08T10:38:38;12.70;;;5.03;;
27187;SDS011;14708;50.872;5.306;2024-03-08T10:41:12;13.90;;;5.25;;
27187;SDS011;14708;50.872;5.306;2024-03-08T10:46:24;11.18;;;4.72;;
27187;SDS011;14708;50.872;5.306;2024-03-08T10:49:06;8.88;;;4.53;;
27187;SDS011;14708;50.872;5.306;2024-03-08T10:51:36;6.32;;;4.25;;
27187;SDS011;14708;50.872;5.306;2024-03-08T10:54:03;5.95;;;4.03;;
27187;SDS011;14708;50.872;5.306;2024-03-08T10:56:32;6.50;;;4.40;;
27187;SDS011;14708;50.872;5.306;2024-03-08T10:58:59;6.78;;;4.25;;
27187;SDS011;14708;50.872;5.306;2024-03-08T11:01:24;6.38;;;4.20;;
27187;SDS011;14708;50.872;5.306;2024-03-08T11:03:51;7.47;;;4.05;;
27187;SDS011;14708;50.872;5.306;2024-03-08T11:14:50;7.13;;;4.10;;
27187;SDS011;14708;50.872;5.306;2024-03-08T11:17:21;7.85;;;4.93;;
27187;SDS011;14708;50.872;5.306;2024-03-08T11:19:54;7.10;;;3.95;;
27187;SDS011;14708;50.872;5.306;2024-03-08T11:22:22;6.70;;;4.43;;
27187;SDS011;14708;50.872;5.306;2024-03-08T11:24:53;7.75;;;4.63;;
27187;SDS011;14708;50.872;5.306;2024-03-08T11:27:19;9.32;;;5.70;;
27187;SDS011;14708;50.872;5.306;2024-03-08T11:30:00;8.90;;;5.50;;
27187;SDS011;14708;50.872;5.306;2024-03-08T11:32:35;8.10;;;5.05;;
27187;SDS011;14708;50.872;5.306;2024-03-08T11:35:07;7.97;;;5.23;;
27187;SDS011;14708;50.872;5.306;2024-03-08T11:37:43;10.40;;;5.47;;
27187;SDS011;14708;50.872;5.306;2024-03-08T11:40:12;7.10;;;4.80;;
27187;SDS011;14708;50.872;5.306;2024-03-08T11:42:47;8.18;;;4.78;;
27187;SDS011;14708;50.872;5.306;2024-03-08T11:45:14;9.38;;;5.05;;
27187;SDS011;14708;50.872;5.306;2024-03-08T11:47:45;8.40;;;5.00;;
27187;SDS011;14708;50.872;5.306;2024-03-08T11:50:11;7.10;;;4.47;;
27187;SDS011;14708;50.872;5.306;2024-03-08T11:52:37;8.73;;;5.07;;
27187;SDS011;14708;50.872;5.306;2024-03-08T11:55:06;8.90;;;5.57;;
27187;SDS011;14708;50.872;5.306;2024-03-08T11:57:32;7.28;;;5.05;;
27187;SDS011;14708;50.872;5.306;2024-03-08T11:59:58;9.02;;;4.97;;
27187;SDS011;14708;50.872;5.306;2024-03-08T12:02:33;8.90;;;4.85;;
27187;SDS011;14708;50.872;5.306;2024-03-08T12:05:03;8.27;;;4.72;;
27187;SDS011;14708;50.872;5.306;2024-03-08T12:07:31;7.00;;;4.47;;
27187;SDS011;14708;50.872;5.306;2024-03-08T12:10:16;6.70;;;4.25;;
27187;SDS011;14708;50.872;5.306;2024-03-08T12:12:50;5.65;;;3.92;;
27187;SDS011;14708;50.872;5.306;2024-03-08T12:15:18;7.18;;;3.80;;
27187;SDS011;14708;50.872;5.306;2024-03-08T12:17:47;6.25;;;4.32;;
27187;SDS011;14708;50.872;5.306;2024-03-08T12:20:18;6.82;;;4.20;;
27187;SDS011;14708;50.872;5.306;2024-03-08T12:22:50;6.60;;;4.70;;
27187;SDS011;14708;50.872;5.306;2024-03-08T12:25:27;8.82;;;5.45;;
27187;SDS011;14708;50.872;5.306;2024-03-08T12:27:55;6.13;;;4.28;;
27187;SDS011;14708;50.872;5.306;2024-03-08T12:35:25;13.13;;;4.85;;
27187;SDS011;14708;50.872;5.306;2024-03-08T12:37:58;6.85;;;4.53;;
27187;SDS011;14708;50.872;5.306;2024-03-08T12:40:29;7.15;;;4.32;;
27187;SDS011;14708;50.872;5.306;2024-03-08T12:42:56;13.13;;;4.82;;
27187;SDS011;14708;50.872;5.306;2024-03-08T12:45:23;10.50;;;4.85;;
27187;SDS011;14708;50.872;5.306;2024-03-08T12:47:58;8.05;;;4.68;;
27187;SDS011;14708;50.872;5.306;2024-03-08T12:50:25;8.00;;;4.78;;
27187;SDS011;14708;50.872;5.306;2024-03-08T12:52:50;6.65;;;4.35;;
27187;SDS011;14708;50.872;5.306;2024-03-08T12:55:20;7.75;;;4.35;;
27187;SDS011;14708;50.872;5.306;2024-03-08T12:57:47;8.48;;;4.65;;
27187;SDS011;14708;50.872;5.306;2024-03-08T13:00:14;7.85;;;5.32;;
27187;SDS011;14708;50.872;5.306;2024-03-08T13:02:48;10.52;;;4.75;;
27187;SDS011;14708;50.872;5.306;2024-03-08T13:07:43;7.15;;;4.45;;
27187;SDS011;14708;50.872;5.306;2024-03-08T13:10:14;14.18;;;5.93;;
27187;SDS011;14708;50.872;5.306;2024-03-08T13:12:44;20.20;;;6.72;;
27187;SDS011;14708;50.872;5.306;2024-03-08T13:15:10;28.25;;;9.65;;
27187;SDS011;14708;50.872;5.306;2024-03-08T13:17:40;35.45;;;11.55;;
27187;SDS011;14708;50.872;5.306;2024-03-08T13:20:08;64.70;;;17.38;;
27187;SDS011;14708;50.872;5.306;2024-03-08T13:22:35;52.03;;;14.65;;
27187;SDS011;14708;50.872;5.306;2024-03-08T13:25:01;46.03;;;15.98;;
27187;SDS011;14708;50.872;5.306;2024-03-08T13:27:28;51.35;;;14.20;;
27187;SDS011;14708;50.872;5.306;2024-03-08T13:29:53;54.58;;;15.32;;
27187;SDS011;14708;50.872;5.306;2024-03-08T13:32:19;48.05;;;14.70;;
27187;SDS011;14708;50.872;5.306;2024-03-08T13:34:49;40.17;;;13.95;;
27187;SDS011;14708;50.872;5.306;2024-03-08T13:37:16;54.40;;;15.90;;
27187;SDS011;14708;50.872;5.306;2024-03-08T13:39:42;45.40;;;14.48;;
27187;SDS011;14708;50.872;5.306;2024-03-08T13:42:11;46.97;;;15.38;;
27187;SDS011;14708;50.872;5.306;2024-03-08T13:44:47;47.85;;;13.65;;
27187;SDS011;14708;50.872;5.306;2024-03-08T13:47:17;48.65;;;13.63;;
27187;SDS011;14708;50.872;5.306;2024-03-08T13:49:43;35.40;;;11.02;;
27187;SDS011;14708;50.872;5.306;2024-03-08T13:52:09;33.60;;;12.27;;
27187;SDS011;14708;50.872;5.306;2024-03-08T13:54:38;38.20;;;12.55;;
27187;SDS011;14708;50.872;5.306;2024-03-08T13:57:04;33.58;;;12.15;;
27187;SDS011;14708;50.872;5.306;2024-03-08T13:59:32;32.45;;;10.52;;
27187;SDS011;14708;50.872;5.306;2024-03-08T14:02:00;26.95;;;11.02;;
27187;SDS011;14708;50.872;5.306;2024-03-08T14:04:29;25.35;;;10.10;;
27187;SDS011;14708;50.872;5.306;2024-03-08T14:06:55;27.48;;;9.80;;
27187;SDS011;14708;50.872;5.306;2024-03-08T14:09:29;24.90;;;8.88;;
27187;SDS011;14708;50.872;5.306;2024-03-08T14:11:56;25.35;;;10.18;;
27187;SDS011;14708;50.872;5.306;2024-03-08T14:14:22;24.08;;;9.52;;
27187;SDS011;14708;50.872;5.306;2024-03-08T14:16:48;31.38;;;9.43;;
27187;SDS011;14708;50.872;5.306;2024-03-08T14:19:17;20.65;;;7.90;;
27187;SDS011;14708;50.872;5.306;2024-03-08T14:21:44;24.63;;;8.25;;
27187;SDS011;14708;50.872;5.306;2024-03-08T14:24:09;19.48;;;8.30;;
27187;SDS011;14708;50.872;5.306;2024-03-08T14:26:35;19.45;;;7.63;;
27187;SDS011;14708;50.872;5.306;2024-03-08T14:29:03;16.98;;;6.72;;
27187;SDS011;14708;50.872;5.306;2024-03-08T14:31:30;12.75;;;7.18;;
27187;SDS011;14708;50.872;5.306;2024-03-08T14:33:56;16.27;;;7.53;;
27187;SDS011;14708;50.872;5.306;2024-03-08T14:36:23;17.65;;;7.50;;
27187;SDS011;14708;50.872;5.306;2024-03-08T14:38:50;18.10;;;6.47;;
27187;SDS011;14708;50.872;5.306;2024-03-08T14:41:17;14.52;;;6.75;;
27187;SDS011;14708;50.872;5.306;2024-03-08T14:43:44;13.88;;;6.88;;
27187;SDS011;14708;50.872;5.306;2024-03-08T14:46:13;13.10;;;5.95;;
27187;SDS011;14708;50.872;5.306;2024-03-08T14:48:48;12.77;;;6.67;;
27187;SDS011;14708;50.872;5.306;2024-03-08T14:51:16;13.07;;;6.35;;
27187;SDS011;14708;50.872;5.306;2024-03-08T14:53:45;11.53;;;5.77;;
27187;SDS011;14708;50.872;5.306;2024-03-08T14:56:11;16.77;;;6.68;;
27187;SDS011;14708;50.872;5.306;2024-03-08T14:58:41;11.10;;;5.68;;
27187;SDS011;14708;50.872;5.306;2024-03-08T15:01:09;8.25;;;5.18;;
27187;SDS011;14708;50.872;5.306;2024-03-08T15:03:36;11.40;;;5.53;;
27187;SDS011;14708;50.872;5.306;2024-03-08T15:06:04;7.35;;;5.30;;
27187;SDS011;14708;50.872;5.306;2024-03-08T15:08:33;11.45;;;5.47;;
27187;SDS011;14708;50.872;5.306;2024-03-08T15:11:01;7.85;;;4.75;;
27187;SDS011;14708;50.872;5.306;2024-03-08T15:13:27;8.90;;;5.53;;